Time;durP1;ratioP1;P1;durP2;ratioP2;P2;SDS_P1;SDS_P2;PMS_P1;PMS_P2;Temp;Humidity;BMP_temperature;BMP_pressure;BME280_temperature;BME280_humidity;BME280_pressure;Samples;Min_cycle;Max_cycle;Signal;HPM_P1;HPM_P2
2020/12/19 00:01:33;;;;;;;19.00;12.85;;;6.00;99.90;;;;;;5063282;28;20020;-76
2020/12/19 00:03:59;;;;;;;20.80;13.27;;;5.90;99.90;;;;;;5084391;28;20119;-76
2020/12/19 00:06:26;;;;;;;25.15;14.30;;;5.90;99.90;;;;;;5071577;28;20103;-76
2020/12/19 00:08:51;;;;;;;19.45;12.63;;;5.90;99.90;;;;;;5071670;28;20393;-76
2020/12/19 00:11:17;;;;;;;20.05;13.13;;;5.90;99.90;;;;;;5071637;28;20491;-76
2020/12/19 00:13:43;;;;;;;21.67;13.00;;;5.90;99.90;;;;;;5071479;28;20520;-76
2020/12/19 00:16:16;;;;;;;21.48;12.77;;;5.90;99.90;;;;;;5053475;28;20109;-76
2020/12/19 00:18:43;;;;;;;21.25;14.32;;;5.90;99.90;;;;;;5053597;28;20028;-76
2020/12/19 00:21:09;;;;;;;23.35;13.95;;;5.80;99.90;;;;;;5053239;28;20111;-76
2020/12/19 00:23:35;;;;;;;22.02;14.52;;;5.80;99.90;;;;;;5071461;28;20132;-76
2020/12/19 00:26:01;;;;;;;27.60;15.13;;;5.80;99.90;;;;;;5066865;28;20523;-76
2020/12/19 00:28:27;;;;;;;25.95;14.18;;;5.90;99.90;;;;;;5054025;28;20086;-76
2020/12/19 00:30:52;;;;;;;20.80;14.57;;;5.90;99.90;;;;;;5053662;28;20468;-76
2020/12/19 00:33:18;;;;;;;22.38;14.13;;;5.80;99.90;;;;;;5071235;28;20426;-76
2020/12/19 00:35:44;;;;;;;23.85;15.07;;;5.80;99.90;;;;;;5053250;28;20029;-76
2020/12/19 00:38:09;;;;;;;22.35;14.50;;;5.80;99.90;;;;;;5071215;28;20475;-76
2020/12/19 00:40:35;;;;;;;23.85;14.88;;;5.80;99.90;;;;;;5053516;28;20074;-76
2020/12/19 00:43:00;;;;;;;27.20;15.65;;;5.80;99.90;;;;;;5074313;28;20495;-76
2020/12/19 00:45:26;;;;;;;25.30;16.25;;;5.80;99.90;;;;;;5074855;28;20309;-76
2020/12/19 00:47:52;;;;;;;23.30;15.95;;;5.80;99.90;;;;;;5056959;28;20111;-76
2020/12/19 00:50:17;;;;;;;26.08;15.32;;;5.80;99.90;;;;;;5074555;28;20041;-76
2020/12/19 00:52:43;;;;;;;31.35;17.13;;;5.80;99.90;;;;;;5074989;28;20028;-76
2020/12/19 00:55:08;;;;;;;24.85;16.52;;;5.80;99.90;;;;;;5056662;28;20116;-76
2020/12/19 00:57:34;;;;;;;28.08;16.15;;;5.80;99.90;;;;;;5074848;28;20017;-76
2020/12/19 01:00:00;;;;;;;26.45;16.35;;;5.80;99.90;;;;;;5056847;28;20397;-76
2020/12/19 01:02:26;;;;;;;25.77;17.40;;;5.80;99.90;;;;;;5056416;28;20020;-76
2020/12/19 01:04:52;;;;;;;31.83;18.33;;;5.80;99.90;;;;;;5074522;28;20017;-76
2020/12/19 01:07:18;;;;;;;28.27;17.52;;;5.80;99.90;;;;;;5056790;28;20024;-76
2020/12/19 01:09:43;;;;;;;26.85;16.45;;;5.80;99.90;;;;;;5056531;28;20479;-76
2020/12/19 01:12:09;;;;;;;25.58;17.00;;;5.80;99.90;;;;;;5056608;28;20055;-76
2020/12/19 01:14:34;;;;;;;28.40;16.58;;;5.80;99.90;;;;;;5056442;28;20016;-76
2020/12/19 01:17:04;;;;;;;26.95;17.77;;;5.90;99.90;;;;;;5074427;28;20021;-75
2020/12/19 01:19:30;;;;;;;26.25;17.70;;;5.90;99.90;;;;;;5056208;28;20056;-76
2020/12/19 01:21:55;;;;;;;29.38;17.35;;;5.90;99.90;;;;;;5074474;28;20025;-76
2020/12/19 01:24:21;;;;;;;26.38;16.95;;;5.90;99.90;;;;;;5056266;28;20031;-75
2020/12/19 01:26:50;;;;;;;28.02;16.55;;;5.90;99.90;;;;;;5056124;28;20024;-76
2020/12/19 01:29:16;;;;;;;27.92;17.38;;;5.90;99.90;;;;;;5056178;28;20039;-76
2020/12/19 01:31:42;;;;;;;25.77;16.25;;;5.90;99.90;;;;;;5058361;28;20392;-76
2020/12/19 01:34:07;;;;;;;27.92;17.92;;;5.90;99.90;;;;;;5066030;28;20070;-75
2020/12/19 01:36:33;;;;;;;30.65;17.98;;;5.90;99.90;;;;;;5056544;28;20111;-76
2020/12/19 01:38:59;;;;;;;25.35;16.80;;;5.90;99.90;;;;;;5074043;28;20032;-75
2020/12/19 01:41:24;;;;;;;29.58;18.15;;;5.90;99.90;;;;;;5056154;28;20021;-76
2020/12/19 01:43:56;;;;;;;25.00;16.85;;;5.90;99.90;;;;;;5073931;28;20020;-76
2020/12/19 01:46:27;;;;;;;28.13;18.10;;;5.90;99.90;;;;;;5055899;28;20021;-75
2020/12/19 01:48:56;;;;;;;28.42;18.13;;;5.90;99.90;;;;;;5055728;28;20178;-76
2020/12/19 01:51:23;;;;;;;27.15;18.75;;;5.90;99.90;;;;;;5073849;28;20020;-76
2020/12/19 01:53:49;;;;;;;28.00;17.60;;;5.90;99.90;;;;;;5072407;28;20024;-76
2020/12/19 01:56:20;;;;;;;27.90;17.13;;;5.80;99.90;;;;;;5073888;28;20025;-76
2020/12/19 01:58:46;;;;;;;25.98;16.08;;;5.90;99.90;;;;;;5073553;28;20117;-76
2020/12/19 02:01:15;;;;;;;28.23;17.83;;;5.90;99.90;;;;;;5073687;28;20024;-76
2020/12/19 02:03:40;;;;;;;28.23;17.42;;;5.80;99.90;;;;;;5073621;28;20423;-76
2020/12/19 02:06:07;;;;;;;26.65;18.48;;;5.80;99.90;;;;;;5069470;28;20024;-76
2020/12/19 02:08:33;;;;;;;27.02;17.67;;;5.80;99.90;;;;;;5082723;28;20391;-76
2020/12/19 02:10:59;;;;;;;30.30;18.70;;;5.80;99.90;;;;;;5077900;28;20020;-76
2020/12/19 02:13:24;;;;;;;25.35;17.33;;;5.80;99.90;;;;;;5055455;28;20031;-76
2020/12/19 02:15:50;;;;;;;28.55;17.50;;;5.80;99.90;;;;;;5055282;28;20044;-76
2020/12/19 02:18:15;;;;;;;29.20;17.98;;;5.80;99.90;;;;;;5077472;28;20024;-76
2020/12/19 02:20:41;;;;;;;26.27;18.58;;;5.80;99.90;;;;;;5081978;28;20369;-76
2020/12/19 02:23:07;;;;;;;32.08;18.52;;;5.80;99.90;;;;;;5055089;28;20467;-76
2020/12/19 02:25:36;;;;;;;30.33;18.55;;;5.70;99.90;;;;;;5055143;28;20028;-76
2020/12/19 02:28:03;;;;;;;29.33;18.48;;;5.70;99.90;;;;;;5072984;28;20142;-76
2020/12/19 02:30:29;;;;;;;28.05;18.05;;;5.70;99.90;;;;;;5066723;28;20044;-76
2020/12/19 02:32:55;;;;;;;31.80;19.13;;;5.70;99.90;;;;;;5055172;28;20427;-76
2020/12/19 02:35:20;;;;;;;29.23;19.35;;;5.70;99.90;;;;;;5054943;28;20062;-76
2020/12/19 02:37:46;;;;;;;37.00;19.67;;;5.70;99.90;;;;;;5054864;28;20487;-76
2020/12/19 02:40:11;;;;;;;31.13;19.23;;;5.70;99.90;;;;;;5072759;28;20518;-76
2020/12/19 02:42:37;;;;;;;29.40;19.08;;;5.70;99.90;;;;;;5054846;28;20495;-76
2020/12/19 02:45:03;;;;;;;31.88;20.30;;;5.60;99.90;;;;;;5054814;28;20472;-76
2020/12/19 02:50:50;;;;;;;33.03;20.13;;;5.60;99.90;;;;;;5072760;28;20043;-76
2020/12/19 02:53:15;;;;;;;30.88;19.08;;;5.60;99.90;;;;;;5072632;28;20029;-76
2020/12/19 02:55:41;;;;;;;35.25;22.52;;;5.60;99.90;;;;;;5054517;28;20027;-76
2020/12/19 02:58:06;;;;;;;30.75;20.20;;;5.60;99.90;;;;;;5054648;28;20155;-76
2020/12/19 03:00:32;;;;;;;31.13;20.25;;;5.60;99.90;;;;;;5072389;28;20028;-76
2020/12/19 03:02:57;;;;;;;33.75;19.80;;;5.60;99.90;;;;;;5054527;28;20021;-76
2020/12/19 03:05:23;;;;;;;31.83;19.60;;;5.60;99.90;;;;;;5054102;28;20029;-76
2020/12/19 03:07:48;;;;;;;34.80;20.70;;;5.60;99.90;;;;;;5054147;28;20448;-76
2020/12/19 03:10:14;;;;;;;34.50;21.45;;;5.60;99.90;;;;;;5054426;28;20384;-76
2020/12/19 03:12:40;;;;;;;36.17;21.95;;;5.50;99.90;;;;;;5054407;28;20031;-76
2020/12/19 03:15:05;;;;;;;38.85;21.73;;;5.50;99.90;;;;;;5054402;28;20043;-76
2020/12/19 03:17:31;;;;;;;35.10;21.38;;;5.50;99.90;;;;;;5072296;28;20020;-76
2020/12/19 03:19:56;;;;;;;31.95;20.95;;;5.50;99.90;;;;;;5054069;28;20420;-76
2020/12/19 03:22:22;;;;;;;35.17;20.73;;;5.50;99.90;;;;;;5072362;28;20017;-76
2020/12/19 03:24:47;;;;;;;36.78;22.33;;;5.50;99.90;;;;;;5071777;28;20016;-76
2020/12/19 03:27:13;;;;;;;38.13;21.38;;;5.40;99.90;;;;;;5072170;28;20067;-76
2020/12/19 03:29:38;;;;;;;35.80;21.05;;;5.50;99.90;;;;;;5072017;28;20047;-75
2020/12/19 03:32:04;;;;;;;35.85;21.65;;;5.50;99.90;;;;;;5054249;28;20495;-75
2020/12/19 03:34:29;;;;;;;34.65;21.35;;;5.50;99.90;;;;;;5065572;28;20020;-76
2020/12/19 03:36:55;;;;;;;36.95;20.77;;;5.50;99.90;;;;;;5054138;28;20017;-76
2020/12/19 03:39:20;;;;;;;38.25;22.25;;;5.50;99.90;;;;;;5071997;28;20514;-76
2020/12/19 03:41:46;;;;;;;35.67;22.45;;;5.40;99.90;;;;;;5054175;28;20038;-76
2020/12/19 03:44:11;;;;;;;35.28;21.30;;;5.40;99.90;;;;;;5077666;28;20070;-76
2020/12/19 03:46:37;;;;;;;31.10;19.75;;;5.40;99.90;;;;;;5053792;28;20036;-76
2020/12/19 03:49:02;;;;;;;34.95;21.55;;;5.40;99.90;;;;;;5071733;28;20115;-76
2020/12/19 03:51:28;;;;;;;36.13;21.27;;;5.40;99.90;;;;;;5071806;28;20468;-76
2020/12/19 03:53:53;;;;;;;36.97;22.08;;;5.40;99.90;;;;;;5053826;28;20025;-76
2020/12/19 03:56:19;;;;;;;38.63;22.85;;;5.40;99.90;;;;;;5053825;28;20028;-76
2020/12/19 03:58:44;;;;;;;36.30;22.60;;;5.40;99.90;;;;;;5053866;28;20016;-76
2020/12/19 04:01:10;;;;;;;35.72;21.77;;;5.40;99.90;;;;;;5071678;28;20063;-76
2020/12/19 04:03:35;;;;;;;38.47;21.20;;;5.40;99.90;;;;;;5071783;28;20025;-75
2020/12/19 04:06:01;;;;;;;36.05;21.55;;;5.40;99.90;;;;;;5053779;28;20392;-76
2020/12/19 04:08:26;;;;;;;35.25;21.25;;;5.40;99.90;;;;;;5053705;28;20024;-76
2020/12/19 04:10:52;;;;;;;36.05;20.65;;;5.40;99.90;;;;;;5071526;28;20012;-76
2020/12/19 04:13:17;;;;;;;33.92;22.27;;;5.40;99.90;;;;;;5058123;28;20538;-76
2020/12/19 04:15:43;;;;;;;35.55;21.63;;;5.40;99.90;;;;;;5061243;28;20039;-76
2020/12/19 04:18:10;;;;;;;37.83;22.50;;;5.40;99.90;;;;;;5056835;28;20021;-75
2020/12/19 04:20:35;;;;;;;37.55;22.80;;;5.40;99.90;;;;;;5057572;28;20108;-76
2020/12/19 04:23:01;;;;;;;37.80;22.95;;;5.40;99.90;;;;;;5075534;28;20108;-76
2020/12/19 04:25:27;;;;;;;38.20;22.00;;;5.40;99.90;;;;;;5057373;28;20464;-76
2020/12/19 04:27:52;;;;;;;33.78;20.75;;;5.40;99.90;;;;;;5057311;28;20028;-76
2020/12/19 04:30:18;;;;;;;38.55;23.25;;;5.40;99.90;;;;;;5075454;28;20164;-76
2020/12/19 04:32:43;;;;;;;36.88;20.92;;;5.40;99.90;;;;;;5075189;28;20388;-76
2020/12/19 04:35:09;;;;;;;34.28;21.85;;;5.40;99.90;;;;;;5075900;28;20037;-76
2020/12/19 04:37:34;;;;;;;31.20;22.13;;;5.40;99.90;;;;;;5075185;28;20016;-76
2020/12/19 04:40:00;;;;;;;35.20;20.50;;;5.40;99.90;;;;;;5057155;28;20012;-76
2020/12/19 04:42:26;;;;;;;32.60;21.17;;;5.40;99.90;;;;;;5057191;28;20444;-76
2020/12/19 04:44:51;;;;;;;34.72;21.27;;;5.40;99.90;;;;;;5057006;28;20512;-76
2020/12/19 04:47:17;;;;;;;33.78;21.88;;;5.40;99.90;;;;;;5074906;28;20091;-76
2020/12/19 04:49:44;;;;;;;36.83;21.58;;;5.40;99.90;;;;;;5056820;28;20086;-76
2020/12/19 04:52:10;;;;;;;35.13;21.25;;;5.40;99.90;;;;;;5074849;28;20016;-76
2020/12/19 04:54:36;;;;;;;31.38;21.02;;;5.40;99.90;;;;;;5057058;28;20489;-76
2020/12/19 04:57:03;;;;;;;37.70;21.90;;;5.40;99.90;;;;;;5056717;28;20019;-76
2020/12/19 04:59:28;;;;;;;32.63;21.08;;;5.40;99.90;;;;;;5074801;28;20035;-76
2020/12/19 05:01:54;;;;;;;33.97;21.20;;;5.40;99.90;;;;;;5078551;28;20024;-76
2020/12/19 05:04:20;;;;;;;33.38;20.13;;;5.40;99.90;;;;;;5074694;28;20106;-76
2020/12/19 05:06:46;;;;;;;32.38;20.45;;;5.40;99.90;;;;;;5074550;28;20078;-76
2020/12/19 05:09:12;;;;;;;32.97;20.83;;;5.50;99.90;;;;;;5056591;28;20063;-76
2020/12/19 05:11:38;;;;;;;37.80;21.27;;;5.40;99.90;;;;;;5056565;28;20040;-76
2020/12/19 05:14:05;;;;;;;31.80;20.55;;;5.40;99.90;;;;;;5056676;28;20479;-76
2020/12/19 05:16:31;;;;;;;31.42;19.92;;;5.50;99.90;;;;;;5074252;28;20021;-76
2020/12/19 05:18:57;;;;;;;35.80;20.75;;;5.40;99.90;;;;;;5056474;28;20070;-76
2020/12/19 05:21:24;;;;;;;34.90;20.23;;;5.40;99.90;;;;;;5074417;28;20021;-76
2020/12/19 05:23:50;;;;;;;38.70;20.73;;;5.40;99.90;;;;;;5056291;28;20365;-76
2020/12/19 05:26:17;;;;;;;35.35;21.83;;;5.40;99.90;;;;;;5074248;28;20072;-76
2020/12/19 05:28:43;;;;;;;33.97;20.08;;;5.40;99.90;;;;;;5055856;28;20020;-76
2020/12/19 05:31:11;;;;;;;31.15;20.02;;;5.40;99.90;;;;;;5056097;28;20020;-76
2020/12/19 05:33:39;;;;;;;31.23;20.33;;;5.50;99.90;;;;;;5056258;28;20016;-76
2020/12/19 05:36:07;;;;;;;39.58;20.90;;;5.50;99.90;;;;;;5056881;28;20697;-76
2020/12/19 05:38:38;;;;;;;31.98;20.30;;;5.50;99.90;;;;;;5056005;28;20081;-76
2020/12/19 05:41:04;;;;;;;33.55;18.98;;;5.50;99.90;;;;;;5056031;28;20020;-76
2020/12/19 05:43:30;;;;;;;32.28;19.15;;;5.50;99.90;;;;;;5055884;28;20120;-76
2020/12/19 05:45:56;;;;;;;30.98;20.02;;;5.40;99.90;;;;;;5073949;28;20154;-76
2020/12/19 05:48:21;;;;;;;32.15;20.10;;;5.40;99.90;;;;;;5073698;28;20078;-76
2020/12/19 05:50:47;;;;;;;31.40;19.90;;;5.50;99.90;;;;;;5073831;28;20049;-76
2020/12/19 05:53:14;;;;;;;35.75;20.02;;;5.40;99.90;;;;;;5073865;28;20574;-76
2020/12/19 05:55:40;;;;;;;32.75;20.48;;;5.50;99.90;;;;;;5073829;28;20028;-76
2020/12/19 05:58:07;;;;;;;30.20;19.33;;;5.40;99.90;;;;;;5073498;28;20029;-76
2020/12/19 06:00:33;;;;;;;32.83;18.90;;;5.40;99.90;;;;;;5073751;28;20028;-76
2020/12/19 06:03:04;;;;;;;29.15;18.05;;;5.40;99.90;;;;;;5077980;28;20028;-76
2020/12/19 06:05:31;;;;;;;34.70;19.90;;;5.40;99.90;;;;;;5063224;28;20024;-76
2020/12/19 06:07:59;;;;;;;30.23;18.10;;;5.50;99.90;;;;;;5073382;28;20467;-76
2020/12/19 06:10:25;;;;;;;36.08;21.08;;;5.50;99.90;;;;;;5055811;28;20070;-76
2020/12/19 06:13:01;;;;;;;31.95;18.83;;;5.50;99.90;;;;;;5072748;28;20032;-76
2020/12/19 06:15:38;;;;;;;28.75;17.48;;;5.50;99.90;;;;;;5073548;28;20482;-76
2020/12/19 06:18:15;;;;;;;30.73;18.52;;;5.50;99.90;;;;;;5055164;28;20024;-75
2020/12/19 06:20:41;;;;;;;30.00;17.67;;;5.40;99.90;;;;;;5053510;28;20029;-75
2020/12/19 06:23:14;;;;;;;30.48;17.85;;;5.50;99.90;;;;;;5065690;28;20048;-75
2020/12/19 06:25:49;;;;;;;32.30;18.20;;;5.50;99.90;;;;;;5055216;28;20027;-75
2020/12/19 06:28:42;;;;;;;25.58;17.42;;;5.50;99.90;;;;;;5072743;28;20434;-75
2020/12/19 06:31:15;;;;;;;31.98;17.98;;;5.40;99.90;;;;;;5073517;28;20021;-76
2020/12/19 06:33:46;;;;;;;35.50;19.70;;;5.40;99.90;;;;;;5055611;28;20056;-76
2020/12/19 06:36:23;;;;;;;28.08;16.80;;;5.50;99.90;;;;;;5069545;28;20023;-76
2020/12/19 06:38:53;;;;;;;27.98;18.50;;;5.50;99.90;;;;;;5093457;28;20379;-76
2020/12/19 06:41:46;;;;;;;30.17;17.25;;;5.50;99.90;;;;;;5075473;28;20081;-76
2020/12/19 06:44:20;;;;;;;36.25;18.75;;;5.50;99.90;;;;;;5093595;28;20043;-75
2020/12/19 06:46:45;;;;;;;29.13;17.20;;;5.60;99.90;;;;;;5075654;28;20032;-75
2020/12/19 06:49:26;;;;;;;23.95;16.25;;;5.60;99.90;;;;;;5075371;28;20044;-75
2020/12/19 06:52:01;;;;;;;26.58;16.55;;;5.60;99.90;;;;;;5075390;28;20464;-75
2020/12/19 06:54:37;;;;;;;25.40;16.25;;;5.60;99.90;;;;;;5075364;28;20024;-75
2020/12/19 06:57:04;;;;;;;29.30;16.48;;;5.60;99.90;;;;;;5075476;28;20016;-75
2020/12/19 06:59:31;;;;;;;25.65;15.77;;;5.60;99.90;;;;;;5075050;28;20069;-75
2020/12/19 07:02:20;;;;;;;29.80;16.95;;;5.60;99.90;;;;;;5075343;28;20513;-76
2020/12/19 07:04:46;;;;;;;26.95;16.25;;;5.60;99.90;;;;;;5075282;28;20483;-75
2020/12/19 07:07:15;;;;;;;26.75;14.57;;;5.60;99.90;;;;;;5093392;28;20028;-76
2020/12/19 07:09:41;;;;;;;26.80;15.25;;;5.60;99.90;;;;;;5093327;28;20028;-75
2020/12/19 07:12:32;;;;;;;23.08;15.63;;;5.60;99.90;;;;;;5093459;28;20024;-75
2020/12/19 07:14:58;;;;;;;25.02;15.65;;;5.70;99.90;;;;;;5093305;28;20020;-76
2020/12/19 07:17:24;;;;;;;22.00;14.75;;;5.70;99.90;;;;;;5093180;28;20028;-76
2020/12/19 07:20:00;;;;;;;23.80;15.70;;;5.70;99.90;;;;;;5081253;28;20505;-76
2020/12/19 07:22:27;;;;;;;26.45;16.85;;;5.70;99.90;;;;;;5065338;28;20020;-76
2020/12/19 07:24:54;;;;;;;29.63;16.00;;;5.70;99.90;;;;;;5092980;28;20028;-76
2020/12/19 07:27:23;;;;;;;27.05;16.50;;;5.70;99.90;;;;;;5078889;28;20498;-75
2020/12/19 07:29:56;;;;;;;25.63;16.27;;;5.80;99.90;;;;;;5063891;28;20038;-75
2020/12/19 07:32:23;;;;;;;24.02;15.38;;;5.80;99.90;;;;;;5065657;28;20464;-76
2020/12/19 07:34:52;;;;;;;25.98;15.20;;;5.80;99.90;;;;;;5080341;28;20020;-75
2020/12/19 07:37:19;;;;;;;23.93;16.83;;;5.80;99.90;;;;;;5082158;28;20039;-75
2020/12/19 07:39:44;;;;;;;25.65;15.13;;;5.90;99.90;;;;;;5083062;28;20029;-75
2020/12/19 07:42:10;;;;;;;24.02;15.10;;;5.90;99.90;;;;;;5090066;28;20035;-75
2020/12/19 07:44:37;;;;;;;27.92;16.42;;;5.90;99.90;;;;;;5066917;28;20071;-75
2020/12/19 07:47:11;;;;;;;25.77;16.23;;;5.90;99.90;;;;;;5061752;28;20422;-75
2020/12/19 07:49:42;;;;;;;26.58;16.13;;;5.90;99.90;;;;;;5081749;28;20499;-76
2020/12/19 07:52:24;;;;;;;23.92;15.90;;;5.80;99.90;;;;;;5068827;28;20475;-76
2020/12/19 07:54:54;;;;;;;32.83;16.85;;;5.80;99.90;;;;;;5069399;28;20056;-76
2020/12/19 07:57:20;;;;;;;26.55;16.33;;;5.80;99.90;;;;;;5068909;28;20115;-76
2020/12/19 07:59:47;;;;;;;26.80;15.30;;;5.80;99.90;;;;;;5084951;28;20108;-76
2020/12/19 08:02:15;;;;;;;26.15;15.98;;;5.80;99.90;;;;;;5076507;28;20020;-76
2020/12/19 08:04:57;;;;;;;19.40;13.93;;;5.80;99.90;;;;;;5084393;28;20016;-76
2020/12/19 08:07:25;;;;;;;25.50;15.90;;;5.80;99.90;;;;;;5069343;28;20023;-76
2020/12/19 08:09:58;;;;;;;23.85;16.10;;;5.90;99.90;;;;;;5068339;28;20048;-76
2020/12/19 08:12:24;;;;;;;26.23;15.98;;;5.90;99.90;;;;;;5085746;28;20099;-76
2020/12/19 08:14:51;;;;;;;25.50;16.35;;;5.90;99.90;;;;;;5085698;28;20023;-76
2020/12/19 08:17:17;;;;;;;25.80;17.55;;;6.00;99.90;;;;;;5069142;28;20032;-76
2020/12/19 08:19:53;;;;;;;28.05;16.10;;;6.00;99.90;;;;;;5083987;28;20029;-76
2020/12/19 08:22:20;;;;;;;23.73;16.15;;;6.00;99.90;;;;;;5084992;28;20025;-76
2020/12/19 08:24:49;;;;;;;24.83;15.30;;;6.10;99.90;;;;;;5090345;28;20042;-75
2020/12/19 08:27:29;;;;;;;27.75;16.10;;;6.20;99.90;;;;;;5096570;28;20034;-76
2020/12/19 08:30:24;;;;;;;25.30;15.90;;;6.30;99.90;;;;;;5078090;28;20040;-76
2020/12/19 08:32:55;;;;;;;23.48;15.13;;;6.30;99.90;;;;;;5056826;28;20069;-76
2020/12/19 08:35:30;;;;;;;30.85;16.77;;;6.40;99.90;;;;;;5089413;28;20064;-77
2020/12/19 08:38:06;;;;;;;23.70;16.23;;;6.40;99.90;;;;;;5056295;28;20143;-76
2020/12/19 08:40:41;;;;;;;23.45;15.98;;;6.40;99.90;;;;;;5071717;28;20020;-76
2020/12/19 08:43:10;;;;;;;25.25;15.93;;;6.50;99.90;;;;;;5093984;28;20394;-76
2020/12/19 08:45:37;;;;;;;22.80;15.23;;;6.50;99.90;;;;;;5094747;28;20028;-76
2020/12/19 08:48:05;;;;;;;27.73;17.50;;;6.60;99.90;;;;;;5077883;28;20032;-76
2020/12/19 08:50:42;;;;;;;25.33;16.40;;;6.60;99.90;;;;;;5077520;28;20471;-76
2020/12/19 08:53:20;;;;;;;27.13;16.83;;;6.70;99.90;;;;;;5095949;28;20054;-76
2020/12/19 08:55:47;;;;;;;23.90;16.55;;;6.80;99.90;;;;;;5072196;28;20081;-76
2020/12/19 08:58:23;;;;;;;24.85;16.35;;;6.80;99.90;;;;;;5083740;28;20028;-75
2020/12/19 09:00:49;;;;;;;24.40;16.48;;;6.80;99.90;;;;;;5081567;28;20017;-76
2020/12/19 09:03:15;;;;;;;24.98;16.33;;;6.80;99.90;;;;;;5065314;28;20024;-75
2020/12/19 09:05:42;;;;;;;24.38;16.55;;;6.90;99.90;;;;;;5067458;28;20020;-75
2020/12/19 09:08:09;;;;;;;23.23;16.25;;;6.90;99.90;;;;;;5085520;28;20108;-75
2020/12/19 09:10:37;;;;;;;24.73;15.50;;;7.00;99.90;;;;;;5065707;28;20492;-76
2020/12/19 09:13:21;;;;;;;26.83;16.85;;;7.00;99.90;;;;;;5064272;28;20028;-75
2020/12/19 09:15:48;;;;;;;24.05;16.55;;;7.10;99.90;;;;;;5067055;28;20119;-75
2020/12/19 09:18:35;;;;;;;25.20;16.48;;;7.20;99.90;;;;;;5092356;28;20119;-75
2020/12/19 09:21:04;;;;;;;24.75;14.73;;;7.30;99.90;;;;;;5077164;28;20391;-76
2020/12/19 09:23:30;;;;;;;23.88;17.05;;;7.30;99.90;;;;;;5077213;28;20429;-75
2020/12/19 09:25:58;;;;;;;22.98;16.60;;;7.40;99.90;;;;;;5091253;28;20469;-75
2020/12/19 09:28:24;;;;;;;23.90;16.02;;;7.50;99.90;;;;;;5076737;28;20472;-76
2020/12/19 09:30:51;;;;;;;24.30;16.15;;;7.50;99.90;;;;;;5055699;28;20025;-75
2020/12/19 09:33:17;;;;;;;26.02;17.55;;;7.60;99.90;;;;;;5056349;28;20467;-75
2020/12/19 09:35:43;;;;;;;26.13;16.48;;;7.70;99.90;;;;;;5075847;28;20039;-79
2020/12/19 09:38:09;;;;;;;25.23;16.15;;;7.80;99.90;;;;;;5091636;28;20055;-79
2020/12/19 09:40:35;;;;;;;24.60;15.48;;;7.90;99.90;;;;;;5074873;28;20027;-79
2020/12/19 09:43:01;;;;;;;23.38;15.60;;;7.90;99.90;;;;;;5060146;28;20040;-79
2020/12/19 09:45:26;;;;;;;24.30;16.30;;;8.00;99.90;;;;;;5075690;28;20028;-79
2020/12/19 09:47:56;;;;;;;23.33;15.45;;;8.10;99.90;;;;;;5076481;28;20020;-79
2020/12/19 09:50:22;;;;;;;22.80;14.85;;;8.10;99.90;;;;;;5094242;28;20102;-79
2020/12/19 09:52:48;;;;;;;26.10;16.40;;;8.20;99.90;;;;;;5076299;28;20038;-79
2020/12/19 09:55:14;;;;;;;23.75;14.43;;;8.40;99.90;;;;;;5076130;28;20051;-79
2020/12/19 09:57:40;;;;;;;22.92;15.50;;;8.50;99.90;;;;;;5076062;28;20059;-79
2020/12/19 10:00:07;;;;;;;19.70;14.43;;;8.60;99.90;;;;;;5061751;28;20032;-79
2020/12/19 10:02:32;;;;;;;23.67;14.70;;;8.70;99.90;;;;;;5076163;28;20020;-79
2020/12/19 10:04:58;;;;;;;19.92;13.90;;;8.80;99.90;;;;;;5076388;28;20026;-78
2020/12/19 10:07:23;;;;;;;20.50;13.40;;;8.90;99.90;;;;;;5075756;28;20028;-79
2020/12/19 10:09:49;;;;;;;20.08;13.93;;;8.90;99.70;;;;;;5075802;28;20024;-79
2020/12/19 10:12:15;;;;;;;20.88;14.27;;;9.00;99.50;;;;;;5075925;28;20017;-79
2020/12/19 10:14:40;;;;;;;17.00;12.68;;;9.20;99.40;;;;;;5092678;28;20507;-79
2020/12/19 10:17:06;;;;;;;21.38;13.95;;;9.30;99.10;;;;;;5075844;28;20475;-79
2020/12/19 10:19:32;;;;;;;18.92;13.38;;;9.30;99.10;;;;;;5071993;28;20087;-78
2020/12/19 10:21:58;;;;;;;19.67;13.18;;;9.40;98.90;;;;;;5076229;28;20458;-79
2020/12/19 10:24:24;;;;;;;18.02;12.80;;;9.50;98.90;;;;;;5055680;28;20021;-79
2020/12/19 10:26:50;;;;;;;17.88;12.65;;;9.50;98.50;;;;;;5055551;28;20051;-78
2020/12/19 10:29:16;;;;;;;17.95;12.02;;;9.60;98.20;;;;;;5073294;28;20025;-79
2020/12/19 10:31:41;;;;;;;18.08;13.00;;;9.70;98.10;;;;;;5073404;28;20035;-79
2020/12/19 10:34:07;;;;;;;17.38;12.05;;;9.70;98.00;;;;;;5072953;28;20396;-79
2020/12/19 10:36:33;;;;;;;19.60;12.70;;;9.70;98.00;;;;;;5063801;28;20041;-78
2020/12/19 10:38:58;;;;;;;20.20;13.27;;;9.80;97.60;;;;;;5062970;28;20029;-79
2020/12/19 10:41:24;;;;;;;17.83;13.10;;;9.90;97.50;;;;;;5073002;28;20020;-79
2020/12/19 10:43:50;;;;;;;16.27;11.30;;;10.00;97.30;;;;;;5055966;28;20045;-79
2020/12/19 10:46:26;;;;;;;17.02;12.55;;;10.00;97.30;;;;;;5066037;28;20062;-79
2020/12/19 10:48:52;;;;;;;16.25;11.68;;;10.10;97.00;;;;;;5061979;28;20039;-79
2020/12/19 10:51:28;;;;;;;17.17;12.30;;;10.10;96.90;;;;;;5076395;28;20020;-79
2020/12/19 10:53:55;;;;;;;17.50;11.68;;;10.10;96.90;;;;;;5054858;28;20070;-79
2020/12/19 10:56:21;;;;;;;17.70;13.30;;;10.10;96.80;;;;;;5054750;28;20035;-79
2020/12/19 10:58:47;;;;;;;17.58;11.60;;;10.10;96.80;;;;;;5054807;28;20032;-79
2020/12/19 11:01:13;;;;;;;16.95;11.82;;;10.10;96.80;;;;;;5053897;28;20028;-79
2020/12/19 11:03:43;;;;;;;16.90;11.70;;;10.20;96.70;;;;;;5054013;28;20579;-79
2020/12/19 11:06:27;;;;;;;19.00;12.93;;;10.20;96.80;;;;;;5071810;28;20515;-79
2020/12/19 11:08:53;;;;;;;15.43;11.85;;;10.30;96.80;;;;;;5057179;28;20438;-79
2020/12/19 11:11:20;;;;;;;19.27;12.65;;;10.30;96.60;;;;;;5054047;28;20070;-79
2020/12/19 11:13:47;;;;;;;18.00;12.82;;;10.30;96.50;;;;;;5053784;28;20373;-79
2020/12/19 11:16:28;;;;;;;17.38;12.23;;;10.30;96.70;;;;;;5053936;28;20048;-79
2020/12/19 11:18:55;;;;;;;18.27;12.73;;;10.40;96.80;;;;;;5053889;28;20028;-79
2020/12/19 11:21:21;;;;;;;19.13;12.30;;;10.40;96.80;;;;;;5071516;28;20019;-79
2020/12/19 11:23:47;;;;;;;16.38;11.90;;;10.50;96.70;;;;;;5071840;28;20016;-79
2020/12/19 11:26:13;;;;;;;16.73;12.40;;;10.60;96.50;;;;;;5053756;28;20021;-79
2020/12/19 11:28:42;;;;;;;15.85;11.77;;;10.60;96.40;;;;;;5053732;28;20342;-79
2020/12/19 11:31:07;;;;;;;20.13;12.23;;;10.70;96.10;;;;;;5053841;28;20020;-79
2020/12/19 11:33:33;;;;;;;18.13;11.60;;;10.80;95.70;;;;;;5071657;28;20036;-79
2020/12/19 11:36:00;;;;;;;18.60;11.10;;;10.80;95.80;;;;;;5074015;28;20498;-79
2020/12/19 11:38:26;;;;;;;14.07;10.35;;;10.90;95.60;;;;;;5065151;28;20379;-79
2020/12/19 11:40:52;;;;;;;15.20;10.05;;;10.90;95.50;;;;;;5053291;28;20494;-79
2020/12/19 11:43:17;;;;;;;13.95;9.55;;;11.00;95.00;;;;;;5053532;28;20023;-79
2020/12/19 11:45:43;;;;;;;15.45;9.77;;;11.10;95.00;;;;;;5071707;28;20426;-79
2020/12/19 11:48:08;;;;;;;13.05;9.18;;;11.20;94.90;;;;;;5072170;28;20033;-79
2020/12/19 11:50:34;;;;;;;12.65;8.75;;;11.30;94.40;;;;;;5053867;28;20048;-79
2020/12/19 11:53:00;;;;;;;14.05;8.93;;;11.40;94.30;;;;;;5072001;28;20032;-78
2020/12/19 11:55:25;;;;;;;10.13;7.57;;;11.50;94.20;;;;;;5072118;28;20376;-79
2020/12/19 11:57:51;;;;;;;11.93;7.43;;;11.50;93.90;;;;;;5072272;28;20029;-79
2020/12/19 12:00:16;;;;;;;9.07;6.85;;;11.50;94.10;;;;;;5054057;28;20024;-79
2020/12/19 12:02:42;;;;;;;11.20;7.65;;;11.60;93.80;;;;;;5053941;28;20016;-79
2020/12/19 12:05:07;;;;;;;10.25;7.30;;;11.60;93.30;;;;;;5053537;28;20051;-79
2020/12/19 12:07:33;;;;;;;12.50;7.90;;;11.60;93.40;;;;;;5071972;28;20020;-80
2020/12/19 12:09:58;;;;;;;9.45;7.30;;;11.60;93.40;;;;;;5072449;28;20035;-78
2020/12/19 12:12:24;;;;;;;12.27;8.20;;;11.50;93.40;;;;;;5072020;28;20042;-79
2020/12/19 12:14:49;;;;;;;12.10;7.78;;;11.50;93.60;;;;;;5053438;28;20100;-80
2020/12/19 12:17:15;;;;;;;10.73;8.10;;;11.50;94.00;;;;;;5071249;28;20024;-80
2020/12/19 12:19:40;;;;;;;11.32;7.22;;;11.50;94.20;;;;;;5052931;28;20025;-79
2020/12/19 12:22:06;;;;;;;11.02;7.35;;;11.50;94.10;;;;;;5071269;28;20021;-79
2020/12/19 12:24:31;;;;;;;10.52;6.82;;;11.50;94.20;;;;;;5053374;28;20041;-79
2020/12/19 12:26:57;;;;;;;11.65;6.93;;;11.50;94.10;;;;;;5053319;28;20060;-79
2020/12/19 12:29:23;;;;;;;9.00;6.43;;;11.50;94.00;;;;;;5070343;28;20510;-79
2020/12/19 12:31:49;;;;;;;7.50;5.57;;;11.50;94.00;;;;;;5080028;28;20024;-81
2020/12/19 12:34:15;;;;;;;8.90;5.15;;;11.50;93.90;;;;;;5073382;28;20238;-80
2020/12/19 12:36:41;;;;;;;6.13;4.80;;;11.60;94.10;;;;;;5065297;28;20016;-80
2020/12/19 12:39:06;;;;;;;8.80;5.00;;;11.60;94.00;;;;;;5094670;28;20030;-80
2020/12/19 12:41:32;;;;;;;8.70;5.25;;;11.70;93.60;;;;;;5077006;28;20028;-80